sensor_id;sensor_type;location;lat;lon;timestamp;P1;durP1;ratioP1;P2;durP2;ratioP2
21890;SDS011;11110;52.386;16.940;2023-11-18T00:00:32;24.07;;;8.13;;
21890;SDS011;11110;52.386;16.940;2023-11-18T00:03:22;20.57;;;7.00;;
21890;SDS011;11110;52.386;16.940;2023-11-18T00:05:51;20.67;;;7.77;;
21890;SDS011;11110;52.386;16.940;2023-11-18T00:08:20;20.93;;;7.47;;
21890;SDS011;11110;52.386;16.940;2023-11-18T00:10:48;21.40;;;7.43;;
21890;SDS011;11110;52.386;16.940;2023-11-18T00:13:17;19.83;;;7.83;;
21890;SDS011;11110;52.386;16.940;2023-11-18T00:15:45;24.63;;;8.00;;
21890;SDS011;11110;52.386;16.940;2023-11-18T00:18:15;21.00;;;8.30;;
21890;SDS011;11110;52.386;16.940;2023-11-18T00:20:45;19.50;;;7.83;;
21890;SDS011;11110;52.386;16.940;2023-11-18T00:23:13;20.37;;;8.07;;
21890;SDS011;11110;52.386;16.940;2023-11-18T00:25:47;21.77;;;7.80;;
21890;SDS011;11110;52.386;16.940;2023-11-18T00:28:16;23.10;;;8.63;;
21890;SDS011;11110;52.386;16.940;2023-11-18T00:30:46;22.20;;;8.73;;
21890;SDS011;11110;52.386;16.940;2023-11-18T00:33:15;22.00;;;8.47;;
21890;SDS011;11110;52.386;16.940;2023-11-18T00:35:45;27.13;;;8.90;;
21890;SDS011;11110;52.386;16.940;2023-11-18T00:38:14;19.90;;;8.17;;
21890;SDS011;11110;52.386;16.940;2023-11-18T00:40:42;20.63;;;8.87;;
21890;SDS011;11110;52.386;16.940;2023-11-18T00:43:11;23.60;;;9.23;;
21890;SDS011;11110;52.386;16.940;2023-11-18T00:45:39;25.67;;;8.87;;
21890;SDS011;11110;52.386;16.940;2023-11-18T00:48:10;21.37;;;8.80;;
21890;SDS011;11110;52.386;16.940;2023-11-18T00:50:38;27.00;;;9.77;;
21890;SDS011;11110;52.386;16.940;2023-11-18T00:53:08;23.90;;;10.83;;
21890;SDS011;11110;52.386;16.940;2023-11-18T00:55:37;26.13;;;10.73;;
21890;SDS011;11110;52.386;16.940;2023-11-18T00:58:05;23.67;;;9.57;;
21890;SDS011;11110;52.386;16.940;2023-11-18T01:00:34;21.40;;;9.50;;
21890;SDS011;11110;52.386;16.940;2023-11-18T01:03:03;22.57;;;9.77;;
21890;SDS011;11110;52.386;16.940;2023-11-18T01:05:31;25.20;;;10.47;;
21890;SDS011;11110;52.386;16.940;2023-11-18T01:08:00;26.23;;;10.07;;
21890;SDS011;11110;52.386;16.940;2023-11-18T01:10:30;26.97;;;11.07;;
21890;SDS011;11110;52.386;16.940;2023-11-18T01:12:59;24.93;;;10.77;;
21890;SDS011;11110;52.386;16.940;2023-11-18T01:15:28;26.63;;;10.60;;
21890;SDS011;11110;52.386;16.940;2023-11-18T01:17:59;25.90;;;10.97;;
21890;SDS011;11110;52.386;16.940;2023-11-18T01:20:29;26.30;;;10.53;;
21890;SDS011;11110;52.386;16.940;2023-11-18T01:22:57;28.40;;;10.93;;
21890;SDS011;11110;52.386;16.940;2023-11-18T01:25:27;28.93;;;11.70;;
21890;SDS011;11110;52.386;16.940;2023-11-18T01:27:57;24.20;;;10.87;;
21890;SDS011;11110;52.386;16.940;2023-11-18T01:30:26;30.57;;;12.17;;
21890;SDS011;11110;52.386;16.940;2023-11-18T01:32:55;29.73;;;12.30;;
21890;SDS011;11110;52.386;16.940;2023-11-18T01:35:23;29.43;;;11.90;;
21890;SDS011;11110;52.386;16.940;2023-11-18T01:37:53;29.90;;;12.40;;
21890;SDS011;11110;52.386;16.940;2023-11-18T01:40:22;30.20;;;12.33;;
21890;SDS011;11110;52.386;16.940;2023-11-18T01:42:51;28.90;;;12.40;;
21890;SDS011;11110;52.386;16.940;2023-11-18T01:45:20;33.20;;;13.97;;
21890;SDS011;11110;52.386;16.940;2023-11-18T01:47:49;28.33;;;12.83;;
21890;SDS011;11110;52.386;16.940;2023-11-18T01:50:18;35.17;;;13.70;;
21890;SDS011;11110;52.386;16.940;2023-11-18T01:52:47;30.80;;;13.13;;
21890;SDS011;11110;52.386;16.940;2023-11-18T01:55:16;30.70;;;12.97;;
21890;SDS011;11110;52.386;16.940;2023-11-18T01:57:45;37.80;;;15.27;;
21890;SDS011;11110;52.386;16.940;2023-11-18T02:00:13;29.97;;;12.67;;
21890;SDS011;11110;52.386;16.940;2023-11-18T02:02:46;32.47;;;13.20;;
21890;SDS011;11110;52.386;16.940;2023-11-18T02:05:15;34.97;;;14.13;;
21890;SDS011;11110;52.386;16.940;2023-11-18T02:07:45;38.27;;;15.33;;
21890;SDS011;11110;52.386;16.940;2023-11-18T02:10:14;35.50;;;15.40;;
21890;SDS011;11110;52.386;16.940;2023-11-18T02:12:46;40.60;;;16.50;;
21890;SDS011;11110;52.386;16.940;2023-11-18T02:15:23;37.27;;;13.70;;
21890;SDS011;11110;52.386;16.940;2023-11-18T02:17:55;34.73;;;13.63;;
21890;SDS011;11110;52.386;16.940;2023-11-18T02:20:25;42.30;;;16.77;;
21890;SDS011;11110;52.386;16.940;2023-11-18T02:22:56;40.20;;;15.93;;
21890;SDS011;11110;52.386;16.940;2023-11-18T02:25:25;42.40;;;15.90;;
21890;SDS011;11110;52.386;16.940;2023-11-18T02:27:57;50.23;;;17.63;;
21890;SDS011;11110;52.386;16.940;2023-11-18T02:30:26;38.63;;;16.47;;
21890;SDS011;11110;52.386;16.940;2023-11-18T02:32:58;39.43;;;15.40;;
21890;SDS011;11110;52.386;16.940;2023-11-18T02:35:33;42.90;;;16.13;;
21890;SDS011;11110;52.386;16.940;2023-11-18T02:38:04;42.53;;;14.60;;
21890;SDS011;11110;52.386;16.940;2023-11-18T02:40:37;38.87;;;15.00;;
21890;SDS011;11110;52.386;16.940;2023-11-18T02:43:12;39.43;;;15.70;;
21890;SDS011;11110;52.386;16.940;2023-11-18T02:45:43;43.77;;;15.57;;
21890;SDS011;11110;52.386;16.940;2023-11-18T02:48:14;41.30;;;14.77;;
21890;SDS011;11110;52.386;16.940;2023-11-18T02:50:44;42.43;;;14.03;;
21890;SDS011;11110;52.386;16.940;2023-11-18T02:53:13;42.77;;;15.73;;
21890;SDS011;11110;52.386;16.940;2023-11-18T02:55:42;36.27;;;14.17;;
21890;SDS011;11110;52.386;16.940;2023-11-18T02:58:10;39.77;;;15.07;;
21890;SDS011;11110;52.386;16.940;2023-11-18T03:00:40;36.10;;;13.30;;
21890;SDS011;11110;52.386;16.940;2023-11-18T03:03:10;36.67;;;13.77;;
21890;SDS011;11110;52.386;16.940;2023-11-18T03:05:38;37.47;;;14.50;;
21890;SDS011;11110;52.386;16.940;2023-11-18T03:08:07;37.90;;;14.27;;
21890;SDS011;11110;52.386;16.940;2023-11-18T03:10:35;35.40;;;13.50;;
21890;SDS011;11110;52.386;16.940;2023-11-18T03:13:04;35.40;;;13.30;;
21890;SDS011;11110;52.386;16.940;2023-11-18T03:15:34;34.90;;;14.37;;
21890;SDS011;11110;52.386;16.940;2023-11-18T03:18:04;38.30;;;13.83;;
21890;SDS011;11110;52.386;16.940;2023-11-18T03:20:33;38.97;;;13.90;;
21890;SDS011;11110;52.386;16.940;2023-11-18T03:23:02;34.63;;;12.97;;
21890;SDS011;11110;52.386;16.940;2023-11-18T03:25:34;36.93;;;12.57;;
21890;SDS011;11110;52.386;16.940;2023-11-18T03:28:02;35.43;;;15.00;;
21890;SDS011;11110;52.386;16.940;2023-11-18T03:30:34;33.10;;;12.20;;
21890;SDS011;11110;52.386;16.940;2023-11-18T03:33:04;36.97;;;13.97;;
21890;SDS011;11110;52.386;16.940;2023-11-18T03:35:32;34.50;;;13.53;;
21890;SDS011;11110;52.386;16.940;2023-11-18T03:38:01;33.30;;;13.23;;
21890;SDS011;11110;52.386;16.940;2023-11-18T03:40:30;35.43;;;13.83;;
21890;SDS011;11110;52.386;16.940;2023-11-18T03:43:02;28.67;;;12.30;;
21890;SDS011;11110;52.386;16.940;2023-11-18T03:45:30;32.20;;;12.10;;
21890;SDS011;11110;52.386;16.940;2023-11-18T03:48:01;37.53;;;13.53;;
21890;SDS011;11110;52.386;16.940;2023-11-18T03:50:29;38.07;;;13.70;;
21890;SDS011;11110;52.386;16.940;2023-11-18T03:52:58;31.73;;;12.33;;
21890;SDS011;11110;52.386;16.940;2023-11-18T03:55:28;34.73;;;12.47;;
21890;SDS011;11110;52.386;16.940;2023-11-18T03:57:58;30.23;;;12.03;;
21890;SDS011;11110;52.386;16.940;2023-11-18T04:00:26;35.33;;;14.17;;
21890;SDS011;11110;52.386;16.940;2023-11-18T04:02:56;33.43;;;12.57;;
21890;SDS011;11110;52.386;16.940;2023-11-18T04:05:27;32.60;;;13.57;;
21890;SDS011;11110;52.386;16.940;2023-11-18T04:07:56;35.60;;;14.03;;
21890;SDS011;11110;52.386;16.940;2023-11-18T04:10:24;31.43;;;12.57;;
21890;SDS011;11110;52.386;16.940;2023-11-18T04:12:53;34.57;;;13.60;;
21890;SDS011;11110;52.386;16.940;2023-11-18T04:15:21;31.10;;;12.37;;
21890;SDS011;11110;52.386;16.940;2023-11-18T04:17:51;36.27;;;12.83;;
21890;SDS011;11110;52.386;16.940;2023-11-18T04:20:19;32.93;;;13.20;;
21890;SDS011;11110;52.386;16.940;2023-11-18T04:22:50;31.13;;;11.73;;
21890;SDS011;11110;52.386;16.940;2023-11-18T04:25:18;32.20;;;13.07;;
21890;SDS011;11110;52.386;16.940;2023-11-18T04:27:48;29.03;;;11.37;;
21890;SDS011;11110;52.386;16.940;2023-11-18T04:30:17;32.93;;;13.27;;
21890;SDS011;11110;52.386;16.940;2023-11-18T04:32:46;29.77;;;11.80;;
21890;SDS011;11110;52.386;16.940;2023-11-18T04:35:14;27.13;;;11.03;;
21890;SDS011;11110;52.386;16.940;2023-11-18T04:37:44;31.17;;;12.17;;
21890;SDS011;11110;52.386;16.940;2023-11-18T04:40:14;27.77;;;11.30;;
21890;SDS011;11110;52.386;16.940;2023-11-18T04:42:43;28.07;;;11.70;;
21890;SDS011;11110;52.386;16.940;2023-11-18T04:45:11;28.53;;;11.10;;
21890;SDS011;11110;52.386;16.940;2023-11-18T04:47:41;28.30;;;11.10;;
21890;SDS011;11110;52.386;16.940;2023-11-18T04:50:11;25.07;;;10.70;;
21890;SDS011;11110;52.386;16.940;2023-11-18T04:52:40;24.67;;;10.27;;
21890;SDS011;11110;52.386;16.940;2023-11-18T04:55:09;29.57;;;10.80;;
21890;SDS011;11110;52.386;16.940;2023-11-18T04:57:41;25.83;;;9.57;;
21890;SDS011;11110;52.386;16.940;2023-11-18T05:00:10;26.30;;;9.83;;
21890;SDS011;11110;52.386;16.940;2023-11-18T05:02:43;25.20;;;9.83;;
21890;SDS011;11110;52.386;16.940;2023-11-18T05:05:14;25.20;;;9.60;;
21890;SDS011;11110;52.386;16.940;2023-11-18T05:07:43;28.10;;;10.90;;
21890;SDS011;11110;52.386;16.940;2023-11-18T05:10:12;24.93;;;9.50;;
21890;SDS011;11110;52.386;16.940;2023-11-18T05:12:42;22.30;;;9.73;;
21890;SDS011;11110;52.386;16.940;2023-11-18T05:15:11;25.47;;;9.83;;
21890;SDS011;11110;52.386;16.940;2023-11-18T05:17:40;25.00;;;9.80;;
21890;SDS011;11110;52.386;16.940;2023-11-18T05:20:08;26.17;;;9.30;;
21890;SDS011;11110;52.386;16.940;2023-11-18T05:22:38;28.13;;;10.30;;
21890;SDS011;11110;52.386;16.940;2023-11-18T05:25:06;27.17;;;9.70;;
21890;SDS011;11110;52.386;16.940;2023-11-18T05:27:36;20.57;;;8.07;;
21890;SDS011;11110;52.386;16.940;2023-11-18T05:30:08;26.30;;;9.90;;
21890;SDS011;11110;52.386;16.940;2023-11-18T05:32:38;30.00;;;10.27;;
21890;SDS011;11110;52.386;16.940;2023-11-18T05:35:07;23.50;;;9.30;;
21890;SDS011;11110;52.386;16.940;2023-11-18T05:37:38;20.37;;;8.20;;
21890;SDS011;11110;52.386;16.940;2023-11-18T05:40:08;24.00;;;9.03;;
21890;SDS011;11110;52.386;16.940;2023-11-18T05:42:38;24.80;;;9.53;;
21890;SDS011;11110;52.386;16.940;2023-11-18T05:45:11;24.90;;;9.60;;
21890;SDS011;11110;52.386;16.940;2023-11-18T05:47:54;21.40;;;8.97;;
21890;SDS011;11110;52.386;16.940;2023-11-18T05:50:24;28.70;;;9.80;;
21890;SDS011;11110;52.386;16.940;2023-11-18T05:52:53;24.67;;;9.47;;
21890;SDS011;11110;52.386;16.940;2023-11-18T05:55:22;18.07;;;8.10;;
21890;SDS011;11110;52.386;16.940;2023-11-18T05:57:51;18.47;;;7.50;;
21890;SDS011;11110;52.386;16.940;2023-11-18T06:00:21;20.03;;;7.93;;
21890;SDS011;11110;52.386;16.940;2023-11-18T06:03:01;20.07;;;7.73;;
21890;SDS011;11110;52.386;16.940;2023-11-18T06:05:30;20.00;;;7.50;;
21890;SDS011;11110;52.386;16.940;2023-11-18T06:08:02;21.07;;;8.13;;
21890;SDS011;11110;52.386;16.940;2023-11-18T06:10:31;18.73;;;6.77;;
21890;SDS011;11110;52.386;16.940;2023-11-18T06:13:01;20.83;;;8.37;;
21890;SDS011;11110;52.386;16.940;2023-11-18T06:15:32;20.37;;;8.13;;
21890;SDS011;11110;52.386;16.940;2023-11-18T06:18:02;21.27;;;8.47;;
21890;SDS011;11110;52.386;16.940;2023-11-18T06:20:33;18.37;;;7.70;;
21890;SDS011;11110;52.386;16.940;2023-11-18T06:23:03;22.40;;;8.47;;
21890;SDS011;11110;52.386;16.940;2023-11-18T06:25:31;21.53;;;8.63;;
21890;SDS011;11110;52.386;16.940;2023-11-18T06:28:01;19.83;;;8.17;;
21890;SDS011;11110;52.386;16.940;2023-11-18T06:30:30;21.53;;;8.50;;
21890;SDS011;11110;52.386;16.940;2023-11-18T06:33:00;21.47;;;7.67;;
21890;SDS011;11110;52.386;16.940;2023-11-18T06:35:29;18.27;;;8.30;;
21890;SDS011;11110;52.386;16.940;2023-11-18T06:38:01;26.50;;;9.57;;
21890;SDS011;11110;52.386;16.940;2023-11-18T06:40:29;23.23;;;8.37;;
21890;SDS011;11110;52.386;16.940;2023-11-18T06:42:59;22.50;;;9.03;;
21890;SDS011;11110;52.386;16.940;2023-11-18T06:45:29;22.80;;;9.87;;
21890;SDS011;11110;52.386;16.940;2023-11-18T06:48:00;23.87;;;9.77;;
21890;SDS011;11110;52.386;16.940;2023-11-18T06:50:29;28.20;;;10.70;;
21890;SDS011;11110;52.386;16.940;2023-11-18T06:52:58;24.77;;;10.13;;
21890;SDS011;11110;52.386;16.940;2023-11-18T06:55:27;22.83;;;9.77;;
21890;SDS011;11110;52.386;16.940;2023-11-18T06:57:56;24.37;;;9.43;;
21890;SDS011;11110;52.386;16.940;2023-11-18T07:00:25;27.80;;;10.27;;
21890;SDS011;11110;52.386;16.940;2023-11-18T07:02:55;24.90;;;9.77;;
21890;SDS011;11110;52.386;16.940;2023-11-18T07:05:25;24.13;;;9.73;;
21890;SDS011;11110;52.386;16.940;2023-11-18T07:07:55;24.87;;;9.93;;
21890;SDS011;11110;52.386;16.940;2023-11-18T07:10:24;22.73;;;8.83;;
21890;SDS011;11110;52.386;16.940;2023-11-18T07:12:54;20.93;;;9.10;;
21890;SDS011;11110;52.386;16.940;2023-11-18T07:15:22;23.47;;;9.17;;
21890;SDS011;11110;52.386;16.940;2023-11-18T07:17:51;22.40;;;9.27;;
21890;SDS011;11110;52.386;16.940;2023-11-18T07:20:22;21.73;;;8.60;;
21890;SDS011;11110;52.386;16.940;2023-11-18T07:22:52;19.67;;;8.50;;
21890;SDS011;11110;52.386;16.940;2023-11-18T07:25:21;23.20;;;9.87;;
21890;SDS011;11110;52.386;16.940;2023-11-18T07:27:49;20.67;;;8.97;;
21890;SDS011;11110;52.386;16.940;2023-11-18T07:30:18;21.17;;;8.63;;
21890;SDS011;11110;52.386;16.940;2023-11-18T07:32:46;21.23;;;9.40;;
21890;SDS011;11110;52.386;16.940;2023-11-18T07:35:16;19.03;;;8.73;;
21890;SDS011;11110;52.386;16.940;2023-11-18T07:37:44;22.90;;;8.97;;
21890;SDS011;11110;52.386;16.940;2023-11-18T07:40:14;22.90;;;9.33;;
21890;SDS011;11110;52.386;16.940;2023-11-18T07:42:49;21.53;;;9.53;;
21890;SDS011;11110;52.386;16.940;2023-11-18T07:45:17;18.63;;;8.87;;
21890;SDS011;11110;52.386;16.940;2023-11-18T07:47:46;20.97;;;9.10;;
21890;SDS011;11110;52.386;16.940;2023-11-18T07:50:16;19.33;;;8.57;;
21890;SDS011;11110;52.386;16.940;2023-11-18T07:52:46;20.83;;;9.03;;
21890;SDS011;11110;52.386;16.940;2023-11-18T07:55:17;20.40;;;9.07;;
21890;SDS011;11110;52.386;16.940;2023-11-18T07:57:45;23.13;;;9.40;;
21890;SDS011;11110;52.386;16.940;2023-11-18T08:00:14;21.20;;;9.10;;
21890;SDS011;11110;52.386;16.940;2023-11-18T08:02:43;18.80;;;9.07;;
21890;SDS011;11110;52.386;16.940;2023-11-18T08:05:12;26.13;;;10.13;;
21890;SDS011;11110;52.386;16.940;2023-11-18T08:07:55;23.07;;;10.30;;
21890;SDS011;11110;52.386;16.940;2023-11-18T08:10:25;22.40;;;9.87;;
21890;SDS011;11110;52.386;16.940;2023-11-18T08:12:55;26.37;;;9.97;;
21890;SDS011;11110;52.386;16.940;2023-11-18T08:15:23;23.90;;;10.27;;
21890;SDS011;11110;52.386;16.940;2023-11-18T08:17:53;27.40;;;10.70;;
21890;SDS011;11110;52.386;16.940;2023-11-18T08:20:22;23.70;;;10.23;;
21890;SDS011;11110;52.386;16.940;2023-11-18T08:22:52;27.17;;;10.47;;
21890;SDS011;11110;52.386;16.940;2023-11-18T08:25:21;23.50;;;10.47;;
21890;SDS011;11110;52.386;16.940;2023-11-18T08:27:51;24.17;;;10.30;;
21890;SDS011;11110;52.386;16.940;2023-11-18T08:30:20;25.67;;;10.87;;
21890;SDS011;11110;52.386;16.940;2023-11-18T08:32:50;23.70;;;10.17;;
21890;SDS011;11110;52.386;16.940;2023-11-18T08:35:19;23.27;;;10.40;;
21890;SDS011;11110;52.386;16.940;2023-11-18T08:37:48;26.23;;;11.50;;
21890;SDS011;11110;52.386;16.940;2023-11-18T08:40:17;26.67;;;11.13;;
21890;SDS011;11110;52.386;16.940;2023-11-18T08:42:49;25.07;;;10.47;;
21890;SDS011;11110;52.386;16.940;2023-11-18T08:45:22;23.93;;;10.23;;
21890;SDS011;11110;52.386;16.940;2023-11-18T08:47:55;25.97;;;11.00;;
21890;SDS011;11110;52.386;16.940;2023-11-18T08:50:24;23.03;;;9.90;;
21890;SDS011;11110;52.386;16.940;2023-11-18T08:52:55;26.73;;;11.13;;
21890;SDS011;11110;52.386;16.940;2023-11-18T08:55:26;22.70;;;9.53;;
21890;SDS011;11110;52.386;16.940;2023-11-18T08:58:11;25.67;;;10.30;;
21890;SDS011;11110;52.386;16.940;2023-11-18T09:00:50;23.67;;;10.63;;
21890;SDS011;11110;52.386;16.940;2023-11-18T09:03:22;22.70;;;9.57;;
21890;SDS011;11110;52.386;16.940;2023-11-18T09:06:03;20.90;;;9.67;;
21890;SDS011;11110;52.386;16.940;2023-11-18T09:08:45;21.97;;;9.90;;
21890;SDS011;11110;52.386;16.940;2023-11-18T09:11:20;24.00;;;10.40;;
21890;SDS011;11110;52.386;16.940;2023-11-18T09:13:52;24.03;;;10.70;;
21890;SDS011;11110;52.386;16.940;2023-11-18T09:16:24;25.77;;;10.03;;
21890;SDS011;11110;52.386;16.940;2023-11-18T09:18:56;26.50;;;10.57;;
21890;SDS011;11110;52.386;16.940;2023-11-18T09:21:26;29.20;;;11.63;;
21890;SDS011;11110;52.386;16.940;2023-11-18T09:23:58;21.40;;;10.17;;
21890;SDS011;11110;52.386;16.940;2023-11-18T09:26:26;21.77;;;10.30;;
21890;SDS011;11110;52.386;16.940;2023-11-18T09:28:58;23.37;;;10.20;;
21890;SDS011;11110;52.386;16.940;2023-11-18T09:31:28;29.93;;;11.23;;
21890;SDS011;11110;52.386;16.940;2023-11-18T09:34:00;25.30;;;10.30;;
21890;SDS011;11110;52.386;16.940;2023-11-18T09:36:32;26.33;;;9.97;;
21890;SDS011;11110;52.386;16.940;2023-11-18T09:39:03;19.57;;;9.43;;
21890;SDS011;11110;52.386;16.940;2023-11-18T09:41:31;21.97;;;9.90;;
21890;SDS011;11110;52.386;16.940;2023-11-18T09:44:05;21.93;;;10.50;;
21890;SDS011;11110;52.386;16.940;2023-11-18T09:46:34;20.67;;;9.73;;
21890;SDS011;11110;52.386;16.940;2023-11-18T09:49:11;20.60;;;9.70;;
21890;SDS011;11110;52.386;16.940;2023-11-18T09:51:45;25.30;;;10.30;;
21890;SDS011;11110;52.386;16.940;2023-11-18T09:54:18;22.07;;;10.33;;
21890;SDS011;11110;52.386;16.940;2023-11-18T09:56:51;27.37;;;10.87;;
21890;SDS011;11110;52.386;16.940;2023-11-18T09:59:29;23.83;;;10.83;;
21890;SDS011;11110;52.386;16.940;2023-11-18T10:02:02;20.40;;;9.73;;
21890;SDS011;11110;52.386;16.940;2023-11-18T10:04:32;23.60;;;10.50;;
21890;SDS011;11110;52.386;16.940;2023-11-18T10:07:04;24.03;;;10.60;;
21890;SDS011;11110;52.386;16.940;2023-11-18T10:09:34;25.10;;;10.83;;
21890;SDS011;11110;52.386;16.940;2023-11-18T10:12:07;23.63;;;10.77;;
21890;SDS011;11110;52.386;16.940;2023-11-18T10:14:41;26.43;;;11.90;;
21890;SDS011;11110;52.386;16.940;2023-11-18T10:17:11;25.83;;;11.40;;
21890;SDS011;11110;52.386;16.940;2023-11-18T10:19:51;22.17;;;10.33;;
21890;SDS011;11110;52.386;16.940;2023-11-18T10:22:23;20.50;;;9.23;;
21890;SDS011;11110;52.386;16.940;2023-11-18T10:24:55;20.30;;;9.97;;
21890;SDS011;11110;52.386;16.940;2023-11-18T10:27:25;26.57;;;11.20;;
21890;SDS011;11110;52.386;16.940;2023-11-18T10:29:56;23.57;;;10.37;;
21890;SDS011;11110;52.386;16.940;2023-11-18T10:32:25;25.17;;;10.60;;
21890;SDS011;11110;52.386;16.940;2023-11-18T10:34:55;22.03;;;10.10;;
21890;SDS011;11110;52.386;16.940;2023-11-18T10:37:25;22.80;;;10.97;;
21890;SDS011;11110;52.386;16.940;2023-11-18T10:40:03;26.73;;;11.27;;
21890;SDS011;11110;52.386;16.940;2023-11-18T10:42:32;27.53;;;11.17;;
21890;SDS011;11110;52.386;16.940;2023-11-18T10:45:02;25.03;;;11.07;;
21890;SDS011;11110;52.386;16.940;2023-11-18T10:47:32;26.60;;;11.47;;
21890;SDS011;11110;52.386;16.940;2023-11-18T10:50:02;27.10;;;12.00;;
21890;SDS011;11110;52.386;16.940;2023-11-18T10:52:31;24.53;;;11.37;;
21890;SDS011;11110;52.386;16.940;2023-11-18T10:55:08;23.60;;;10.63;;
21890;SDS011;11110;52.386;16.940;2023-11-18T10:57:40;24.33;;;10.90;;
21890;SDS011;11110;52.386;16.940;2023-11-18T11:00:12;23.80;;;10.63;;
21890;SDS011;11110;52.386;16.940;2023-11-18T11:02:42;22.43;;;10.57;;
21890;SDS011;11110;52.386;16.940;2023-11-18T11:05:11;25.80;;;11.43;;
21890;SDS011;11110;52.386;16.940;2023-11-18T11:07:47;23.67;;;11.30;;
21890;SDS011;11110;52.386;16.940;2023-11-18T11:10:17;27.10;;;11.67;;
21890;SDS011;11110;52.386;16.940;2023-11-18T11:12:52;27.10;;;12.03;;
21890;SDS011;11110;52.386;16.940;2023-11-18T11:15:29;28.43;;;12.47;;
21890;SDS011;11110;52.386;16.940;2023-11-18T11:18:17;26.53;;;12.87;;
21890;SDS011;11110;52.386;16.940;2023-11-18T11:20:59;29.20;;;13.20;;
21890;SDS011;11110;52.386;16.940;2023-11-18T11:23:39;29.13;;;14.03;;
21890;SDS011;11110;52.386;16.940;2023-11-18T11:26:26;34.30;;;14.00;;
21890;SDS011;11110;52.386;16.940;2023-11-18T11:29:24;29.87;;;13.47;;
21890;SDS011;11110;52.386;16.940;2023-11-18T11:32:02;32.50;;;13.80;;
21890;SDS011;11110;52.386;16.940;2023-11-18T11:34:40;29.13;;;13.83;;
21890;SDS011;11110;52.386;16.940;2023-11-18T11:37:19;30.87;;;13.67;;
21890;SDS011;11110;52.386;16.940;2023-11-18T11:39:53;32.53;;;14.57;;
21890;SDS011;11110;52.386;16.940;2023-11-18T11:42:22;30.33;;;15.03;;
21890;SDS011;11110;52.386;16.940;2023-11-18T11:44:51;30.83;;;13.50;;
21890;SDS011;11110;52.386;16.940;2023-11-18T11:47:24;27.17;;;13.37;;
21890;SDS011;11110;52.386;16.940;2023-11-18T11:49:58;31.43;;;14.57;;
21890;SDS011;11110;52.386;16.940;2023-11-18T11:52:37;28.33;;;13.17;;
21890;SDS011;11110;52.386;16.940;2023-11-18T11:55:12;28.43;;;14.00;;
21890;SDS011;11110;52.386;16.940;2023-11-18T11:57:49;29.10;;;14.03;;
21890;SDS011;11110;52.386;16.940;2023-11-18T12:00:20;26.97;;;13.77;;
21890;SDS011;11110;52.386;16.940;2023-11-18T12:02:54;32.07;;;14.87;;
21890;SDS011;11110;52.386;16.940;2023-11-18T12:05:23;28.83;;;14.33;;
21890;SDS011;11110;52.386;16.940;2023-11-18T12:07:54;27.80;;;13.10;;
21890;SDS011;11110;52.386;16.940;2023-11-18T12:10:26;31.63;;;13.40;;
21890;SDS011;11110;52.386;16.940;2023-11-18T12:13:07;30.70;;;13.67;;
21890;SDS011;11110;52.386;16.940;2023-11-18T12:15:49;31.17;;;14.87;;
21890;SDS011;11110;52.386;16.940;2023-11-18T12:18:23;33.20;;;13.90;;
21890;SDS011;11110;52.386;16.940;2023-11-18T12:20:52;29.27;;;13.57;;
21890;SDS011;11110;52.386;16.940;2023-11-18T12:23:23;30.37;;;13.87;;
21890;SDS011;11110;52.386;16.940;2023-11-18T12:25:53;27.13;;;11.73;;
21890;SDS011;11110;52.386;16.940;2023-11-18T12:28:27;28.23;;;12.07;;
21890;SDS011;11110;52.386;16.940;2023-11-18T12:30:58;26.33;;;11.90;;
21890;SDS011;11110;52.386;16.940;2023-11-18T12:36:49;28.43;;;12.23;;
21890;SDS011;11110;52.386;16.940;2023-11-18T12:39:47;26.33;;;11.27;;
21890;SDS011;11110;52.386;16.940;2023-11-18T12:42:57;25.87;;;11.73;;
21890;SDS011;11110;52.386;16.940;2023-11-18T12:45:44;29.73;;;12.23;;
21890;SDS011;11110;52.386;16.940;2023-11-18T12:48:54;28.30;;;11.60;;
21890;SDS011;11110;52.386;16.940;2023-11-18T12:51:28;25.77;;;11.03;;
21890;SDS011;11110;52.386;16.940;2023-11-18T12:53:57;26.43;;;10.57;;
21890;SDS011;11110;52.386;16.940;2023-11-18T12:56:27;28.03;;;11.33;;
21890;SDS011;11110;52.386;16.940;2023-11-18T12:58:57;26.43;;;11.03;;
21890;SDS011;11110;52.386;16.940;2023-11-18T13:01:26;24.70;;;11.33;;
21890;SDS011;11110;52.386;16.940;2023-11-18T13:03:54;29.73;;;12.47;;
21890;SDS011;11110;52.386;16.940;2023-11-18T13:06:23;29.77;;;12.80;;
21890;SDS011;11110;52.386;16.940;2023-11-18T13:08:56;29.03;;;12.63;;
21890;SDS011;11110;52.386;16.940;2023-11-18T13:11:26;34.90;;;13.27;;
21890;SDS011;11110;52.386;16.940;2023-11-18T13:13:54;31.43;;;13.10;;
21890;SDS011;11110;52.386;16.940;2023-11-18T13:16:23;27.07;;;12.27;;
21890;SDS011;11110;52.386;16.940;2023-11-18T13:18:52;35.70;;;13.47;;
21890;SDS011;11110;52.386;16.940;2023-11-18T13:21:22;28.43;;;12.43;;
21890;SDS011;11110;52.386;16.940;2023-11-18T13:23:57;31.40;;;13.30;;
21890;SDS011;11110;52.386;16.940;2023-11-18T13:26:25;30.23;;;12.37;;
21890;SDS011;11110;52.386;16.940;2023-11-18T13:28:55;23.93;;;11.33;;
21890;SDS011;11110;52.386;16.940;2023-11-18T13:31:26;28.27;;;12.37;;
21890;SDS011;11110;52.386;16.940;2023-11-18T13:33:59;28.80;;;12.73;;
21890;SDS011;11110;52.386;16.940;2023-11-18T13:36:31;25.63;;;11.87;;
21890;SDS011;11110;52.386;16.940;2023-11-18T13:39:01;26.00;;;11.80;;
21890;SDS011;11110;52.386;16.940;2023-11-18T13:41:33;28.00;;;12.90;;
21890;SDS011;11110;52.386;16.940;2023-11-18T13:44:03;28.30;;;12.40;;
21890;SDS011;11110;52.386;16.940;2023-11-18T13:46:32;30.63;;;12.50;;
21890;SDS011;11110;52.386;16.940;2023-11-18T13:49:00;28.23;;;12.43;;
21890;SDS011;11110;52.386;16.940;2023-11-18T13:51:32;28.10;;;12.80;;
21890;SDS011;11110;52.386;16.940;2023-11-18T13:54:04;26.13;;;11.60;;
21890;SDS011;11110;52.386;16.940;2023-11-18T13:56:38;29.10;;;11.63;;
21890;SDS011;11110;52.386;16.940;2023-11-18T13:59:07;26.40;;;11.77;;
21890;SDS011;11110;52.386;16.940;2023-11-18T14:01:36;25.43;;;11.17;;
21890;SDS011;11110;52.386;16.940;2023-11-18T14:04:07;28.43;;;12.43;;
21890;SDS011;11110;52.386;16.940;2023-11-18T14:06:36;23.07;;;11.37;;
21890;SDS011;11110;52.386;16.940;2023-11-18T14:09:07;24.97;;;11.70;;
21890;SDS011;11110;52.386;16.940;2023-11-18T14:11:38;31.17;;;12.50;;
21890;SDS011;11110;52.386;16.940;2023-11-18T14:14:06;25.90;;;12.17;;
21890;SDS011;11110;52.386;16.940;2023-11-18T14:16:35;25.27;;;10.70;;
21890;SDS011;11110;52.386;16.940;2023-11-18T14:19:05;26.50;;;11.13;;
21890;SDS011;11110;52.386;16.940;2023-11-18T14:21:34;24.00;;;10.67;;
21890;SDS011;11110;52.386;16.940;2023-11-18T14:24:03;22.40;;;10.37;;
21890;SDS011;11110;52.386;16.940;2023-11-18T14:26:33;26.20;;;10.47;;
21890;SDS011;11110;52.386;16.940;2023-11-18T14:29:02;26.73;;;10.00;;
21890;SDS011;11110;52.386;16.940;2023-11-18T14:31:31;23.97;;;10.63;;
21890;SDS011;11110;52.386;16.940;2023-11-18T14:34:00;25.70;;;10.20;;
21890;SDS011;11110;52.386;16.940;2023-11-18T14:36:29;25.07;;;10.13;;
21890;SDS011;11110;52.386;16.940;2023-11-18T14:38:57;24.90;;;10.87;;